Time;durP1;ratioP1;P1;durP2;ratioP2;P2;SDS_P1;SDS_P2;PMS_P1;PMS_P2;Temp;Humidity;BMP_temperature;BMP_pressure;BME280_temperature;BME280_humidity;BME280_pressure;Samples;Min_cycle;Max_cycle;Signal;HPM_P1;HPM_P2
2023/05/16 00:01:07;;;;;;;;;;;11.10;99.90;;;;;;5106139;28;19940;-73
2023/05/16 00:03:33;;;;;;;;;;;11.10;99.90;;;;;;5106168;28;19987;-69
2023/05/16 00:06:01;;;;;;;;;;;11.10;99.90;;;;;;5105964;28;19959;-70
2023/05/16 00:08:27;;;;;;;;;;;11.20;99.90;;;;;;5105710;28;20204;-70
2023/05/16 00:10:54;;;;;;;;;;;11.30;99.90;;;;;;5106191;28;19986;-69
2023/05/16 00:13:23;;;;;;;;;;;11.20;99.90;;;;;;5106021;28;19920;-69
2023/05/16 00:15:50;;;;;;;;;;;11.20;99.90;;;;;;5099945;28;19920;-69
2023/05/16 00:18:18;;;;;;;;;;;11.20;99.90;;;;;;5084510;28;20271;-71
2023/05/16 00:20:45;;;;;;;;;;;11.20;99.90;;;;;;5084311;28;19921;-71
2023/05/16 00:23:12;;;;;;;;;;;11.20;99.90;;;;;;5085354;28;19959;-70
2023/05/16 00:25:39;;;;;;;;;;;11.00;99.90;;;;;;5085370;28;19927;-69
2023/05/16 00:28:07;;;;;;;;;;;11.00;99.90;;;;;;5085688;28;19921;-70
2023/05/16 00:30:33;;;;;;;;;;;10.80;99.90;;;;;;5085734;28;19991;-69
2023/05/16 00:33:00;;;;;;;;;;;10.80;99.90;;;;;;5085789;28;19926;-69
2023/05/16 00:35:28;;;;;;;;;;;10.70;99.90;;;;;;5085480;28;20159;-69
2023/05/16 00:37:55;;;;;;;;;;;10.70;99.90;;;;;;5089896;28;19920;-69
2023/05/16 00:40:21;;;;;;;;;;;10.80;99.90;;;;;;5105728;28;19991;-69
2023/05/16 00:42:48;;;;;;;;;;;10.80;99.90;;;;;;5105743;28;20111;-70
2023/05/16 00:45:15;;;;;;;;;;;10.80;99.90;;;;;;5091388;28;19920;-69
2023/05/16 00:47:41;;;;;;;;;;;10.80;99.90;;;;;;5101433;28;20240;-69
2023/05/16 00:50:08;;;;;;;;;;;10.90;99.90;;;;;;5087865;28;19967;-69
2023/05/16 00:52:36;;;;;;;;;;;10.80;99.90;;;;;;5104476;28;19927;-70
2023/05/16 00:55:04;;;;;;;;;;;10.90;99.90;;;;;;5104317;28;19920;-68
2023/05/16 00:57:31;;;;;;;;;;;10.90;99.90;;;;;;5104574;28;19963;-69
2023/05/16 00:59:58;;;;;;;;;;;10.90;99.90;;;;;;5084955;28;19920;-69
2023/05/16 01:02:27;;;;;;;;;;;10.90;99.90;;;;;;5085036;28;19927;-69
2023/05/16 01:04:54;;;;;;;;;;;10.90;99.90;;;;;;5082154;28;19927;-68
2023/05/16 01:07:20;;;;;;;;;;;10.90;99.90;;;;;;5084614;28;20125;-69
2023/05/16 01:09:48;;;;;;;;;;;10.90;99.90;;;;;;5104743;28;19920;-68
2023/05/16 01:12:19;;;;;;;;;;;10.90;99.90;;;;;;5105173;28;19920;-70
2023/05/16 01:14:50;;;;;;;;;;;10.80;99.90;;;;;;5104983;28;19923;-69
2023/05/16 01:17:20;;;;;;;;;;;10.80;99.90;;;;;;5102038;28;19952;-68
2023/05/16 01:19:51;;;;;;;;;;;10.80;99.90;;;;;;5105148;28;20019;-69
2023/05/16 01:22:25;;;;;;;;;;;10.70;99.90;;;;;;5104894;28;19943;-69
2023/05/16 01:24:57;;;;;;;;;;;10.70;99.90;;;;;;5104704;28;20115;-69
2023/05/16 01:27:26;;;;;;;;;;;10.70;99.90;;;;;;5103442;28;20132;-71
2023/05/16 01:29:55;;;;;;;;;;;10.60;99.90;;;;;;5083921;28;19973;-70
2023/05/16 01:32:22;;;;;;;;;;;10.60;99.90;;;;;;5084378;28;20120;-69
2023/05/16 01:34:50;;;;;;;;;;;10.60;99.90;;;;;;5084009;28;19928;-69
2023/05/16 01:37:19;;;;;;;;;;;10.60;99.90;;;;;;5083651;28;19956;-69
2023/05/16 01:39:51;;;;;;;;;;;10.60;99.90;;;;;;5084237;28;19920;-69
2023/05/16 01:42:19;;;;;;;;;;;10.50;99.90;;;;;;5083990;28;19963;-69
2023/05/16 01:44:50;;;;;;;;;;;10.50;99.90;;;;;;5083920;28;19956;-69
2023/05/16 01:47:19;;;;;;;;;;;10.60;99.90;;;;;;5083964;28;19950;-68
2023/05/16 01:49:47;;;;;;;;;;;10.60;99.90;;;;;;5090157;28;19920;-69
2023/05/16 01:52:15;;;;;;;;;;;10.60;99.90;;;;;;5101691;28;20039;-67
2023/05/16 01:54:44;;;;;;;;;;;10.50;99.90;;;;;;5084120;28;19920;-70
2023/05/16 01:57:12;;;;;;;;;;;10.50;99.90;;;;;;5088943;28;20104;-68
2023/05/16 01:59:38;;;;;;;;;;;10.50;99.90;;;;;;5103822;28;19920;-68
2023/05/16 02:02:06;;;;;;;;;;;10.40;99.90;;;;;;5104247;28;19927;-69
2023/05/16 02:04:33;;;;;;;;;;;10.40;99.90;;;;;;5104224;28;19983;-69
2023/05/16 02:07:00;;;;;;;;;;;10.40;99.90;;;;;;5102440;28;19920;-68
2023/05/16 02:09:27;;;;;;;;;;;10.40;99.90;;;;;;5102538;28;19932;-69
2023/05/16 02:11:53;;;;;;;;;;;10.30;99.90;;;;;;5103184;28;19927;-69
2023/05/16 02:14:20;;;;;;;;;;;10.30;99.90;;;;;;5085182;28;19959;-69
2023/05/16 02:16:47;;;;;;;;;;;10.30;99.90;;;;;;5082587;28;19955;-69
2023/05/16 02:19:15;;;;;;;;;;;10.30;99.90;;;;;;5083698;28;19927;-69
2023/05/16 02:21:42;;;;;;;;;;;10.20;99.90;;;;;;5082610;28;20414;-69
2023/05/16 02:24:09;;;;;;;;;;;10.10;99.90;;;;;;5100537;28;19926;-69
2023/05/16 02:26:35;;;;;;;;;;;10.10;99.90;;;;;;5103222;28;20157;-69
2023/05/16 02:29:02;;;;;;;;;;;10.10;99.90;;;;;;5103722;28;19959;-70
2023/05/16 02:31:29;;;;;;;;;;;10.10;99.90;;;;;;5103756;28;19990;-69
2023/05/16 02:33:57;;;;;;;;;;;10.10;99.90;;;;;;5103497;28;19987;-70
2023/05/16 02:36:25;;;;;;;;;;;10.10;99.90;;;;;;5102774;28;19942;-69
2023/05/16 02:38:51;;;;;;;;;;;10.00;99.90;;;;;;5103885;28;19920;-69
2023/05/16 02:41:21;;;;;;;;;;;10.00;99.90;;;;;;5103659;28;20158;-69
2023/05/16 02:43:47;;;;;;;;;;;10.00;99.90;;;;;;5103500;28;19920;-70
2023/05/16 02:46:21;;;;;;;;;;;10.00;99.90;;;;;;5103128;28;19987;-69
2023/05/16 02:48:47;;;;;;;;;;;9.90;99.90;;;;;;5103375;28;20264;-68
2023/05/16 02:51:14;;;;;;;;;;;10.00;99.90;;;;;;5103520;28;19990;-70
2023/05/16 02:53:42;;;;;;;;;;;9.90;99.90;;;;;;5103400;28;20184;-69
2023/05/16 02:56:09;;;;;;;;;;;9.90;99.90;;;;;;5102790;28;19920;-69
2023/05/16 02:58:35;;;;;;;;;;;9.80;99.90;;;;;;5103401;28;19920;-69
2023/05/16 03:01:02;;;;;;;;;;;9.80;99.90;;;;;;5103371;28;19934;-69
2023/05/16 03:03:29;;;;;;;;;;;9.70;99.90;;;;;;5100822;28;19979;-70
2023/05/16 03:05:55;;;;;;;;;;;9.70;99.90;;;;;;5102449;28;19983;-69
2023/05/16 03:08:22;;;;;;;;;;;9.70;99.90;;;;;;5103152;28;19963;-69
2023/05/16 03:10:50;;;;;;;;;;;9.70;99.90;;;;;;5103519;28;19926;-68
2023/05/16 03:13:17;;;;;;;;;;;9.60;99.90;;;;;;5101651;28;19920;-69
2023/05/16 03:15:43;;;;;;;;;;;9.60;99.90;;;;;;5102432;28;19928;-69
2023/05/16 03:18:12;;;;;;;;;;;9.60;99.90;;;;;;5102147;28;20377;-69
2023/05/16 03:20:38;;;;;;;;;;;9.60;99.90;;;;;;5103397;28;19979;-71
2023/05/16 03:23:07;;;;;;;;;;;9.50;99.90;;;;;;5102963;28;19955;-69
2023/05/16 03:25:33;;;;;;;;;;;9.50;99.90;;;;;;5103116;28;19920;-70
2023/05/16 03:28:01;;;;;;;;;;;9.60;99.90;;;;;;5102723;28;19920;-69
2023/05/16 03:30:28;;;;;;;;;;;9.60;99.90;;;;;;5103149;28;19927;-70
2023/05/16 03:32:55;;;;;;;;;;;9.60;99.90;;;;;;5104445;28;20164;-71
2023/05/16 03:35:21;;;;;;;;;;;9.60;99.90;;;;;;5106834;28;19928;-69
2023/05/16 03:37:48;;;;;;;;;;;9.60;99.90;;;;;;5106458;28;19979;-69
2023/05/16 03:40:15;;;;;;;;;;;9.60;99.90;;;;;;5106908;28;20140;-69
2023/05/16 03:42:41;;;;;;;;;;;9.60;99.90;;;;;;5106977;28;19984;-68
2023/05/16 03:45:11;;;;;;;;;;;9.60;99.90;;;;;;5106820;28;20194;-69
2023/05/16 03:47:37;;;;;;;;;;;9.70;99.90;;;;;;5106242;28;19926;-69
2023/05/16 03:50:04;;;;;;;;;;;9.70;99.90;;;;;;5106539;28;19920;-69
2023/05/16 03:52:31;;;;;;;;;;;9.70;99.90;;;;;;5086030;28;20098;-68
2023/05/16 03:54:58;;;;;;;;;;;9.70;99.90;;;;;;5086278;28;19984;-70
2023/05/16 03:57:24;;;;;;;;;;;9.60;99.90;;;;;;5085686;28;19975;-69
2023/05/16 03:59:51;;;;;;;;;;;9.70;99.90;;;;;;5086039;28;19959;-69
2023/05/16 04:02:19;;;;;;;;;;;9.60;99.90;;;;;;5103517;28;19927;-69
2023/05/16 04:04:46;;;;;;;;;;;9.60;99.90;;;;;;5106177;28;19961;-70
2023/05/16 04:07:12;;;;;;;;;;;9.50;99.90;;;;;;5106006;28;20251;-68
2023/05/16 04:09:39;;;;;;;;;;;9.50;99.90;;;;;;5106438;28;19986;-69
2023/05/16 04:12:06;;;;;;;;;;;9.50;99.90;;;;;;5084613;28;19970;-68
2023/05/16 04:14:33;;;;;;;;;;;9.50;99.90;;;;;;5086111;28;19952;-69
2023/05/16 04:17:00;;;;;;;;;;;9.30;99.90;;;;;;5083420;28;19927;-69
2023/05/16 04:19:28;;;;;;;;;;;9.30;99.90;;;;;;5085913;28;19963;-69
2023/05/16 04:21:54;;;;;;;;;;;9.20;99.90;;;;;;5102075;28;19958;-69
2023/05/16 04:24:25;;;;;;;;;;;9.20;99.90;;;;;;5105886;28;19951;-69
2023/05/16 04:26:51;;;;;;;;;;;9.20;99.90;;;;;;5105060;28;19927;-70
2023/05/16 04:29:18;;;;;;;;;;;9.30;99.90;;;;;;5105996;28;19991;-69
2023/05/16 04:31:45;;;;;;;;;;;9.40;99.90;;;;;;5105829;28;19920;-71
2023/05/16 04:34:12;;;;;;;;;;;9.40;99.90;;;;;;5105528;28;20247;-69
2023/05/16 04:36:40;;;;;;;;;;;9.50;99.90;;;;;;5104837;28;20419;-70
2023/05/16 04:39:07;;;;;;;;;;;9.50;99.90;;;;;;5105710;28;19920;-69
2023/05/16 04:41:34;;;;;;;;;;;9.60;99.90;;;;;;5105408;28;19920;-68
2023/05/16 04:44:03;;;;;;;;;;;9.70;99.90;;;;;;5104941;28;19920;-69
2023/05/16 04:46:29;;;;;;;;;;;9.70;99.90;;;;;;5104528;28;19920;-69
2023/05/16 04:48:56;;;;;;;;;;;9.80;99.90;;;;;;5105459;28;19927;-69
2023/05/16 04:51:23;;;;;;;;;;;9.90;99.90;;;;;;5105514;28;20074;-69
2023/05/16 04:53:51;;;;;;;;;;;9.90;99.90;;;;;;5104892;28;20264;-69
2023/05/16 04:56:19;;;;;;;;;;;9.90;99.90;;;;;;5101492;28;19929;-69
2023/05/16 04:58:45;;;;;;;;;;;10.00;99.90;;;;;;5085034;28;19920;-68
2023/05/16 05:01:12;;;;;;;;;;;10.10;99.90;;;;;;5094076;28;19927;-68
2023/05/16 05:03:39;;;;;;;;;;;10.10;99.90;;;;;;5104919;28;19983;-69
2023/05/16 05:06:05;;;;;;;;;;;10.20;99.90;;;;;;5103888;28;19927;-68
2023/05/16 05:08:32;;;;;;;;;;;10.20;99.90;;;;;;5104964;28;19920;-69
2023/05/16 05:11:00;;;;;;;;;;;10.30;99.90;;;;;;5105001;28;19990;-68
2023/05/16 05:13:27;;;;;;;;;;;10.30;99.90;;;;;;5104985;28;19924;-68
2023/05/16 05:15:53;;;;;;;;;;;10.40;99.90;;;;;;5104505;28;19946;-69
2023/05/16 05:18:20;;;;;;;;;;;10.40;99.90;;;;;;5103089;28;20173;-69
2023/05/16 05:20:47;;;;;;;;;;;10.40;99.90;;;;;;5104963;28;19962;-69
2023/05/16 05:23:13;;;;;;;;;;;10.50;99.90;;;;;;5104162;28;20207;-70
2023/05/16 05:25:40;;;;;;;;;;;10.50;99.90;;;;;;5104611;28;19991;-68
2023/05/16 05:28:08;;;;;;;;;;;10.50;99.90;;;;;;5104142;28;20136;-70
2023/05/16 05:30:35;;;;;;;;;;;10.60;99.90;;;;;;5104885;28;19920;-68
2023/05/16 05:33:02;;;;;;;;;;;10.60;99.90;;;;;;5104787;28;19927;-65
2023/05/16 05:35:28;;;;;;;;;;;10.70;99.90;;;;;;5104644;28;19982;-70
2023/05/16 05:37:55;;;;;;;;;;;10.70;99.90;;;;;;5104137;28;20144;-71
2023/05/16 05:40:21;;;;;;;;;;;10.80;99.90;;;;;;5104637;28;19947;-69
2023/05/16 05:42:48;;;;;;;;;;;10.80;99.90;;;;;;5104370;28;20275;-70
2023/05/16 05:45:16;;;;;;;;;;;10.80;99.90;;;;;;5104390;28;19956;-69
2023/05/16 05:47:43;;;;;;;;;;;10.90;99.90;;;;;;5103467;28;20230;-69
2023/05/16 05:50:11;;;;;;;;;;;10.90;99.90;;;;;;5104377;28;19988;-70
2023/05/16 05:52:38;;;;;;;;;;;11.00;99.90;;;;;;5104205;28;19927;-69
2023/05/16 05:55:05;;;;;;;;;;;11.00;99.90;;;;;;5104195;28;19979;-70
2023/05/16 05:57:32;;;;;;;;;;;11.10;99.90;;;;;;5103687;28;20204;-69
2023/05/16 05:59:58;;;;;;;;;;;11.10;99.90;;;;;;5104155;28;19951;-69
2023/05/16 06:02:26;;;;;;;;;;;11.20;99.90;;;;;;5103756;28;19979;-70
2023/05/16 06:04:53;;;;;;;;;;;11.30;99.90;;;;;;5103265;28;19962;-70
2023/05/16 06:07:20;;;;;;;;;;;11.30;99.90;;;;;;5102745;28;20191;-69
2023/05/16 06:09:46;;;;;;;;;;;11.40;99.90;;;;;;5083570;28;19956;-69
2023/05/16 06:12:13;;;;;;;;;;;11.50;99.90;;;;;;5083792;28;19991;-69
2023/05/16 06:14:39;;;;;;;;;;;11.60;99.90;;;;;;5097328;28;19920;-69
2023/05/16 06:17:08;;;;;;;;;;;11.60;99.90;;;;;;5103192;28;19983;-69
2023/05/16 06:19:36;;;;;;;;;;;11.70;99.90;;;;;;5101733;28;19920;-69
2023/05/16 06:22:02;;;;;;;;;;;11.80;99.90;;;;;;5083723;28;19926;-69
2023/05/16 06:24:29;;;;;;;;;;;11.80;99.90;;;;;;5083546;28;20071;-68
2023/05/16 06:26:56;;;;;;;;;;;11.80;99.90;;;;;;5082892;28;20120;-70
2023/05/16 06:29:23;;;;;;;;;;;11.90;99.90;;;;;;5099382;28;19920;-69
2023/05/16 06:31:50;;;;;;;;;;;11.90;99.90;;;;;;5103497;28;19920;-70
2023/05/16 06:34:16;;;;;;;;;;;12.00;99.90;;;;;;5103816;28;19988;-70
2023/05/16 06:36:44;;;;;;;;;;;12.00;99.90;;;;;;5103168;28;20263;-69
2023/05/16 06:39:11;;;;;;;;;;;12.10;99.90;;;;;;5088560;28;20256;-69
2023/05/16 06:41:37;;;;;;;;;;;12.10;99.90;;;;;;5083553;28;19963;-69
2023/05/16 06:44:04;;;;;;;;;;;12.10;99.90;;;;;;5083475;28;19996;-69
2023/05/16 06:46:31;;;;;;;;;;;12.10;99.90;;;;;;5082522;28;19920;-70
2023/05/16 06:48:58;;;;;;;;;;;12.20;99.90;;;;;;5095705;28;19956;-69
2023/05/16 06:51:24;;;;;;;;;;;12.20;99.90;;;;;;5103462;28;19996;-73
2023/05/16 06:53:52;;;;;;;;;;;12.20;99.90;;;;;;5103474;28;19920;-69
2023/05/16 06:56:20;;;;;;;;;;;12.20;99.90;;;;;;5102710;28;20146;-69
2023/05/16 06:58:48;;;;;;;;;;;12.20;99.90;;;;;;5103672;28;19955;-70
2023/05/16 07:01:14;;;;;;;;;;;12.10;99.90;;;;;;5086515;28;19920;-69
2023/05/16 07:03:41;;;;;;;;;;;12.10;99.90;;;;;;5099591;28;20173;-70
2023/05/16 07:06:08;;;;;;;;;;;12.10;99.90;;;;;;5092146;28;19920;-69
2023/05/16 07:08:35;;;;;;;;;;;12.10;99.90;;;;;;5105673;28;19951;-68
2023/05/16 07:11:03;;;;;;;;;;;12.20;99.90;;;;;;5104619;28;19967;-70
2023/05/16 07:13:30;;;;;;;;;;;12.30;99.90;;;;;;5096683;28;19920;-69
2023/05/16 07:15:57;;;;;;;;;;;12.40;99.90;;;;;;5100940;28;19991;-69
2023/05/16 07:18:23;;;;;;;;;;;12.50;99.90;;;;;;5101357;28;19963;-70
2023/05/16 07:20:50;;;;;;;;;;;12.60;99.90;;;;;;5093950;28;19920;-69
2023/05/16 07:23:17;;;;;;;;;;;12.70;99.90;;;;;;5105840;28;19958;-69
2023/05/16 07:25:43;;;;;;;;;;;12.70;99.90;;;;;;5106872;28;19963;-69
2023/05/16 07:28:11;;;;;;;;;;;12.80;99.90;;;;;;5103381;28;19921;-68
2023/05/16 07:30:38;;;;;;;;;;;13.00;99.90;;;;;;5086650;28;19959;-67
2023/05/16 07:33:04;;;;;;;;;;;13.10;99.90;;;;;;5097372;28;20354;-69
2023/05/16 07:35:31;;;;;;;;;;;13.10;99.90;;;;;;5088492;28;19956;-68
2023/05/16 07:37:58;;;;;;;;;;;13.20;99.90;;;;;;5085760;28;20208;-68
2023/05/16 07:40:28;;;;;;;;;;;13.30;99.90;;;;;;5103014;28;19927;-68
2023/05/16 07:42:54;;;;;;;;;;;13.40;99.90;;;;;;5100335;28;20205;-67
2023/05/16 07:45:22;;;;;;;;;;;13.60;99.90;;;;;;5101132;28;19942;-67
2023/05/16 07:47:49;;;;;;;;;;;13.70;99.90;;;;;;5085195;28;20209;-68
2023/05/16 07:50:16;;;;;;;;;;;13.80;99.90;;;;;;5086367;28;19920;-68
2023/05/16 07:52:42;;;;;;;;;;;13.80;99.90;;;;;;5085894;28;20123;-70
2023/05/16 07:55:09;;;;;;;;;;;13.80;99.90;;;;;;5086406;28;19963;-70
2023/05/16 07:57:36;;;;;;;;;;;13.90;99.90;;;;;;5083443;28;19920;-69
2023/05/16 08:00:03;;;;;;;;;;;13.90;99.90;;;;;;5086340;28;19983;-69
2023/05/16 08:02:31;;;;;;;;;;;13.90;99.90;;;;;;5089892;28;19949;-69
2023/05/16 08:04:58;;;;;;;;;;;13.90;99.90;;;;;;5101795;28;20007;-68
2023/05/16 08:07:25;;;;;;;;;;;13.90;99.90;;;;;;5085504;28;20135;-68
2023/05/16 08:09:51;;;;;;;;;;;13.90;99.90;;;;;;5086121;28;19920;-68
2023/05/16 08:12:18;;;;;;;;;;;13.80;99.90;;;;;;5085681;28;19987;-68
2023/05/16 08:14:45;;;;;;;;;;;13.80;99.90;;;;;;5085708;28;19920;-68
2023/05/16 08:17:12;;;;;;;;;;;13.90;99.90;;;;;;5087804;28;19920;-68
2023/05/16 08:19:40;;;;;;;;;;;14.00;99.90;;;;;;5119261;28;19979;-68
2023/05/16 08:22:07;;;;;;;;;;;14.10;99.90;;;;;;5106122;28;19920;-68
2023/05/16 08:24:34;;;;;;;;;;;14.20;99.90;;;;;;5085713;28;19988;-69
2023/05/16 08:27:01;;;;;;;;;;;14.30;99.90;;;;;;5084601;28;19956;-69
2023/05/16 08:29:27;;;;;;;;;;;14.30;99.90;;;;;;5085381;28;20182;-70
2023/05/16 08:31:54;;;;;;;;;;;14.30;99.90;;;;;;5085642;28;19930;-69
2023/05/16 08:34:21;;;;;;;;;;;14.20;99.90;;;;;;5101648;28;19955;-69
2023/05/16 08:36:49;;;;;;;;;;;14.20;99.90;;;;;;5102473;28;19987;-68
2023/05/16 08:39:15;;;;;;;;;;;14.20;99.90;;;;;;5085659;28;19920;-69
2023/05/16 08:41:42;;;;;;;;;;;14.10;99.90;;;;;;5085494;28;20141;-69
2023/05/16 08:44:09;;;;;;;;;;;14.10;99.90;;;;;;5101223;28;19948;-68
2023/05/16 08:46:36;;;;;;;;;;;14.10;99.90;;;;;;5104836;28;19927;-69
2023/05/16 08:49:06;;;;;;;;;;;14.20;99.90;;;;;;5103428;28;19927;-69
2023/05/16 08:51:34;;;;;;;;;;;14.30;99.90;;;;;;5105401;28;20108;-67
2023/05/16 08:54:05;;;;;;;;;;;14.30;99.90;;;;;;5105092;28;19965;-69
2023/05/16 08:56:33;;;;;;;;;;;14.30;99.90;;;;;;5104811;28;19982;-69
2023/05/16 08:59:00;;;;;;;;;;;14.30;99.90;;;;;;5105447;28;19920;-68
2023/05/16 09:01:27;;;;;;;;;;;14.40;99.90;;;;;;5105031;28;19987;-68
2023/05/16 09:03:54;;;;;;;;;;;14.40;99.90;;;;;;5103383;28;19987;-68
2023/05/16 09:06:21;;;;;;;;;;;14.30;99.90;;;;;;5095799;28;19927;-69
2023/05/16 09:08:48;;;;;;;;;;;14.30;99.90;;;;;;5085008;28;19958;-69
2023/05/16 09:11:16;;;;;;;;;;;14.30;99.90;;;;;;5084885;28;19920;-69
2023/05/16 09:13:43;;;;;;;;;;;14.20;99.90;;;;;;5083835;28;19959;-68
2023/05/16 09:16:14;;;;;;;;;;;14.00;99.90;;;;;;5083895;28;19970;-68
2023/05/16 09:18:41;;;;;;;;;;;14.00;99.90;;;;;;5084342;28;19966;-69
2023/05/16 09:21:07;;;;;;;;;;;14.00;99.90;;;;;;5084533;28;19920;-68
2023/05/16 09:23:34;;;;;;;;;;;14.00;99.90;;;;;;5084287;28;19991;-69
2023/05/16 09:26:01;;;;;;;;;;;13.90;99.90;;;;;;5083578;28;19951;-68
2023/05/16 09:28:29;;;;;;;;;;;13.80;99.90;;;;;;5084571;28;19920;-67
2023/05/16 09:30:58;;;;;;;;;;;13.80;99.90;;;;;;5084239;28;19991;-68
2023/05/16 09:33:26;;;;;;;;;;;13.80;99.90;;;;;;5084365;28;20109;-69
2023/05/16 09:35:57;;;;;;;;;;;13.70;99.90;;;;;;5083645;28;19927;-68
2023/05/16 09:38:24;;;;;;;;;;;13.60;99.90;;;;;;5083925;28;19921;-67
2023/05/16 09:40:51;;;;;;;;;;;13.40;99.90;;;;;;5084281;28;19920;-68
2023/05/16 09:43:18;;;;;;;;;;;13.40;99.90;;;;;;5084032;28;19966;-68
2023/05/16 09:45:47;;;;;;;;;;;13.40;99.90;;;;;;5083784;28;19959;-68
2023/05/16 09:48:15;;;;;;;;;;;13.30;99.90;;;;;;5087684;28;19920;-68
2023/05/16 09:50:46;;;;;;;;;;;13.20;99.90;;;;;;5089869;28;20152;-70
2023/05/16 09:53:13;;;;;;;;;;;13.20;99.90;;;;;;5089222;28;19920;-69
2023/05/16 09:55:40;;;;;;;;;;;13.30;99.90;;;;;;5083369;28;19935;-71
2023/05/16 09:58:06;;;;;;;;;;;13.20;99.90;;;;;;5083470;28;19927;-69
2023/05/16 10:00:33;;;;;;;;;;;13.20;99.90;;;;;;5083907;28;19955;-68
2023/05/16 10:03:02;;;;;;;;;;;13.30;99.90;;;;;;5081461;28;19928;-69
2023/05/16 10:05:29;;;;;;;;;;;13.30;99.90;;;;;;5084711;28;20235;-69
2023/05/16 10:07:56;;;;;;;;;;;13.30;99.90;;;;;;5102814;28;19963;-69
2023/05/16 10:10:23;;;;;;;;;;;13.30;99.90;;;;;;5104142;28;19984;-69
2023/05/16 10:12:50;;;;;;;;;;;13.40;99.90;;;;;;5100657;28;19927;-69
2023/05/16 10:15:17;;;;;;;;;;;13.30;99.90;;;;;;5103930;28;19920;-69
2023/05/16 10:17:46;;;;;;;;;;;13.40;99.90;;;;;;5103350;28;19920;-67
2023/05/16 10:20:15;;;;;;;;;;;13.40;99.90;;;;;;5093561;28;20167;-70
2023/05/16 10:22:43;;;;;;;;;;;13.50;99.90;;;;;;5095163;28;19962;-69
2023/05/16 10:25:13;;;;;;;;;;;13.60;99.90;;;;;;5101626;28;19920;-69
2023/05/16 10:27:39;;;;;;;;;;;13.60;99.90;;;;;;5101980;28;19983;-67
2023/05/16 10:30:08;;;;;;;;;;;13.50;99.90;;;;;;5102788;28;19942;-67
2023/05/16 10:32:35;;;;;;;;;;;13.50;99.90;;;;;;5103714;28;19946;-68
2023/05/16 10:35:03;;;;;;;;;;;13.60;99.90;;;;;;5103076;28;20007;-69
2023/05/16 10:37:31;;;;;;;;;;;13.60;99.90;;;;;;5103041;28;19952;-69
2023/05/16 10:39:59;;;;;;;;;;;13.50;99.90;;;;;;5103644;28;19990;-68
2023/05/16 10:42:26;;;;;;;;;;;13.60;99.90;;;;;;5099992;28;19987;-67
2023/05/16 10:44:53;;;;;;;;;;;13.60;99.90;;;;;;5103122;28;19987;-67
2023/05/16 10:47:20;;;;;;;;;;;13.70;99.90;;;;;;5103019;28;19956;-68
2023/05/16 10:49:47;;;;;;;;;;;13.80;99.90;;;;;;5103646;28;19919;-69
2023/05/16 10:52:14;;;;;;;;;;;13.80;99.90;;;;;;5103719;28;19952;-68
2023/05/16 10:54:43;;;;;;;;;;;13.70;99.90;;;;;;5103453;28;19926;-68
2023/05/16 10:57:10;;;;;;;;;;;13.90;99.90;;;;;;5102636;28;19920;-68
2023/05/16 10:59:43;;;;;;;;;;;13.90;99.90;;;;;;5103564;28;20294;-68
2023/05/16 11:02:23;;;;;;;;;;;13.90;99.90;;;;;;5103478;28;20176;-68
2023/05/16 11:04:50;;;;;;;;;;;13.90;99.90;;;;;;5093545;28;19973;-68
2023/05/16 11:07:18;;;;;;;;;;;14.00;99.90;;;;;;5084810;28;19943;-68
2023/05/16 11:09:46;;;;;;;;;;;14.10;99.90;;;;;;5099849;28;19987;-69
2023/05/16 11:12:13;;;;;;;;;;;14.20;99.90;;;;;;5102162;28;19983;-68
2023/05/16 11:14:41;;;;;;;;;;;14.40;99.90;;;;;;5086940;28;19920;-69
2023/05/16 11:17:09;;;;;;;;;;;14.80;99.90;;;;;;5094160;28;19928;-69
2023/05/16 11:19:39;;;;;;;;;;;15.10;99.90;;;;;;5103121;28;19999;-68
2023/05/16 11:22:06;;;;;;;;;;;15.50;99.90;;;;;;5082166;28;19920;-69
2023/05/16 11:24:34;;;;;;;;;;;15.70;99.90;;;;;;5095616;28;19921;-68
2023/05/16 11:27:03;;;;;;;;;;;15.80;99.90;;;;;;5082220;28;19962;-68
2023/05/16 11:29:31;;;;;;;;;;;16.10;99.90;;;;;;5082410;28;20137;-68
2023/05/16 11:31:58;;;;;;;;;;;16.10;99.90;;;;;;5082892;28;19920;-68
2023/05/16 11:34:25;;;;;;;;;;;16.30;99.90;;;;;;5082824;28;20231;-67
2023/05/16 11:36:51;;;;;;;;;;;16.30;99.90;;;;;;5082303;28;19920;-67
2023/05/16 11:39:19;;;;;;;;;;;16.30;99.90;;;;;;5099823;28;19927;-69
2023/05/16 11:41:45;;;;;;;;;;;16.30;99.90;;;;;;5102996;28;19966;-68
2023/05/16 11:44:14;;;;;;;;;;;16.20;99.90;;;;;;5100501;28;19939;-68
2023/05/16 11:46:40;;;;;;;;;;;16.40;99.90;;;;;;5102103;28;19927;-68
2023/05/16 11:49:08;;;;;;;;;;;16.50;99.90;;;;;;5102898;28;19972;-68
2023/05/16 11:51:35;;;;;;;;;;;16.50;99.90;;;;;;5102688;28;19927;-68
2023/05/16 11:54:03;;;;;;;;;;;16.40;99.90;;;;;;5103871;28;19920;-68
2023/05/16 11:56:30;;;;;;;;;;;16.50;99.90;;;;;;5105934;28;19920;-68
2023/05/16 11:58:58;;;;;;;;;;;16.50;99.90;;;;;;5106654;28;19987;-68
2023/05/16 12:01:31;;;;;;;;;;;16.30;99.90;;;;;;5106494;28;19920;-69
2023/05/16 12:03:57;;;;;;;;;;;16.10;99.90;;;;;;5106517;28;19920;-67
2023/05/16 12:06:25;;;;;;;;;;;15.90;99.90;;;;;;5105507;28;19934;-69
2023/05/16 12:08:52;;;;;;;;;;;15.90;99.90;;;;;;5095004;28;19920;-69
2023/05/16 12:11:20;;;;;;;;;;;15.90;99.90;;;;;;5100790;28;19943;-68
2023/05/16 12:13:47;;;;;;;;;;;16.10;99.90;;;;;;5085852;28;19920;-69
2023/05/16 12:16:14;;;;;;;;;;;16.50;99.90;;;;;;5090877;28;20216;-68
2023/05/16 12:18:42;;;;;;;;;;;16.70;99.90;;;;;;5105615;28;19987;-68
2023/05/16 12:21:08;;;;;;;;;;;17.00;99.90;;;;;;5105859;28;19926;-68
2023/05/16 12:23:35;;;;;;;;;;;17.00;99.90;;;;;;5105958;28;19995;-68
2023/05/16 12:26:06;;;;;;;;;;;16.80;99.90;;;;;;5105622;28;19956;-68
2023/05/16 12:28:34;;;;;;;;;;;16.70;99.90;;;;;;5105912;28;19927;-68
2023/05/16 12:31:01;;;;;;;;;;;16.50;99.90;;;;;;5105994;28;19986;-68
2023/05/16 12:33:27;;;;;;;;;;;16.40;99.90;;;;;;5105609;28;20192;-69
2023/05/16 12:35:56;;;;;;;;;;;16.30;99.90;;;;;;5102296;28;19998;-68
2023/05/16 12:38:25;;;;;;;;;;;16.20;99.90;;;;;;5103693;28;19920;-68
2023/05/16 12:40:57;;;;;;;;;;;16.10;99.90;;;;;;5105564;28;19991;-68
2023/05/16 12:43:23;;;;;;;;;;;16.00;99.90;;;;;;5105772;28;20157;-69
2023/05/16 12:45:51;;;;;;;;;;;15.80;99.90;;;;;;5104983;28;19966;-69
2023/05/16 12:48:18;;;;;;;;;;;15.70;99.90;;;;;;5103974;28;19920;-69
2023/05/16 12:50:45;;;;;;;;;;;15.70;99.90;;;;;;5087628;28;19920;-69
2023/05/16 12:53:14;;;;;;;;;;;15.70;99.90;;;;;;5085264;28;19983;-69
2023/05/16 12:55:41;;;;;;;;;;;15.50;99.90;;;;;;5082353;28;20231;-69
2023/05/16 12:58:08;;;;;;;;;;;15.40;99.90;;;;;;5084919;28;19962;-69
2023/05/16 13:00:35;;;;;;;;;;;15.40;99.90;;;;;;5084777;28;20280;-69
2023/05/16 13:03:02;;;;;;;;;;;15.30;99.90;;;;;;5085033;28;19955;-68
2023/05/16 13:05:28;;;;;;;;;;;15.30;99.90;;;;;;5083265;28;19926;-68
2023/05/16 13:07:55;;;;;;;;;;;15.40;99.90;;;;;;5095326;28;19935;-69
2023/05/16 13:10:24;;;;;;;;;;;15.40;99.90;;;;;;5093927;28;19926;-69
2023/05/16 13:12:51;;;;;;;;;;;15.30;99.90;;;;;;5084440;28;19935;-68
2023/05/16 13:15:17;;;;;;;;;;;15.00;99.90;;;;;;5091771;28;19955;-70
2023/05/16 13:17:44;;;;;;;;;;;14.80;99.90;;;;;;5099134;28;20334;-71
2023/05/16 13:20:13;;;;;;;;;;;14.50;99.90;;;;;;5103429;28;20187;-69
2023/05/16 13:22:40;;;;;;;;;;;14.30;99.90;;;;;;5104499;28;20232;-68
2023/05/16 13:25:07;;;;;;;;;;;14.20;99.90;;;;;;5104889;28;19955;-68
2023/05/16 13:27:35;;;;;;;;;;;14.10;99.90;;;;;;5104647;28;19962;-68
2023/05/16 13:30:03;;;;;;;;;;;14.20;99.90;;;;;;5104815;28;19927;-68
2023/05/16 13:32:29;;;;;;;;;;;14.20;99.90;;;;;;5102316;28;19927;-69
2023/05/16 13:34:56;;;;;;;;;;;14.20;99.90;;;;;;5086329;28;19988;-68
2023/05/16 13:37:23;;;;;;;;;;;14.40;99.90;;;;;;5095326;28;19920;-69
2023/05/16 13:39:49;;;;;;;;;;;14.80;99.90;;;;;;5084026;28;19920;-69
2023/05/16 13:42:16;;;;;;;;;;;15.00;99.90;;;;;;5085214;28;20203;-69
2023/05/16 13:44:44;;;;;;;;;;;15.20;99.90;;;;;;5083891;28;19988;-69
2023/05/16 13:47:11;;;;;;;;;;;15.30;99.90;;;;;;5083993;28;20267;-68
2023/05/16 13:49:38;;;;;;;;;;;15.30;99.90;;;;;;5101526;28;20228;-68
2023/05/16 13:52:05;;;;;;;;;;;15.30;99.90;;;;;;5084099;28;19924;-68
2023/05/16 13:54:32;;;;;;;;;;;15.10;99.90;;;;;;5081496;28;19920;-69
2023/05/16 13:56:59;;;;;;;;;;;15.00;99.90;;;;;;5083162;28;20212;-69
2023/05/16 13:59:26;;;;;;;;;;;14.80;99.90;;;;;;5083666;28;20209;-69
2023/05/16 14:01:54;;;;;;;;;;;14.70;99.90;;;;;;5084097;28;19963;-69
2023/05/16 14:04:21;;;;;;;;;;;14.70;99.90;;;;;;5083685;28;20224;-68
2023/05/16 14:06:48;;;;;;;;;;;14.80;99.90;;;;;;5086204;28;19924;-69
2023/05/16 14:09:15;;;;;;;;;;;14.80;99.90;;;;;;5103929;28;19974;-68
2023/05/16 14:11:42;;;;;;;;;;;14.70;99.90;;;;;;5104163;28;20165;-70
2023/05/16 14:14:08;;;;;;;;;;;14.70;99.90;;;;;;5103899;28;19994;-68
2023/05/16 14:16:35;;;;;;;;;;;14.70;99.90;;;;;;5103399;28;19996;-69
2023/05/16 14:19:04;;;;;;;;;;;14.70;99.90;;;;;;5103214;28;19926;-70